Dayton, OH (45405)

2:14 AM EDT on September 03, 2015 (GMT -0400)
Sinclair Dayton Campus | | Change Station
CLOSE
Current Station
Personal Weather Station
Location: Dayton, OH
Elevation: 780 ft
Nearby Weather Stations

Elev 780 ft 39.76 °N, 84.20 °W | Updated 5 seconds ago

Clear
Clear
72.8 °F
Feels Like 72 °F
N
0.0
Wind Variable Wind from East
Gusts 0.0 mph

Today
High -- | Low -- °F
--% Chance of Precip.
Yesterday
High -- | Low -- °F
Precip. -- in
7:06 AM 8:05 PM
Waning Gibbous, 73% visible
Pressure 30.02 in
Visibility 10.0 miles
Clouds Few 5000 ft
Scattered Clouds 9000 ft
Heat Index 72 °F
Dew Point 68 °F
Humidity 84%
Rainfall 0.00 in
Snow Depth Not available.
UV 0.0 out of 12
Pollen 10.40 out of 12
Air Quality Not available.
Flu Activity Not available.
METAR KDAY 030556Z 13004KT 10SM FEW050 SCT090 21/20 A3005 RMK AO2 SLP165 T02110200 10261 20211 58003
Pressure 30.02 in
Visibility 10.0 miles
Clouds Few 5000 ft
Scattered Clouds 9000 ft
Heat Index 72 °F
Dew Point 68 °F
Humidity 84%
Rainfall 0.00 in
Snow Depth Not available.
UV 0.0 out of 12
Pollen 10.40 out of 12
Air Quality Not available.
Flu Activity Not available.
METAR KDAY 030556Z 13004KT 10SM FEW050 SCT090 21/20 A3005 RMK AO2 SLP165 T02110200 10261 20211 58003

10-Day Weather Forecast

×

Almanac

Astronomy

Sep. 03, 2015 Rise Set
Actual Time
Civil Twilight
Nautical Twilight
Astronomical Twilight
Moon
Length of Visible Light
Length of Day
Tomorrow will be .
, % of the Moon is Illuminated

Today's Extremes

State Highs State Lows

Community

WunderPhotos

Upload Photos

1,851,914 photos uploaded!

WunderBlogs® & News

Nearby

Air Quality

  Air Quality AQ Index Pollutant
Not available.

Snow Depth

Station Depth Elevation

Earthquake Activity

City Distance Mag. Time & Date
Minimum magnitude displayed is 2.5.

Coastal Water Temperatures

Place Temperature

Stations

Nearby Weather Stations

Station Location Temp. Windchill Dew Point Humidity Wind Precip. Elev Updated Type